sensor_id;sensor_type;location;lat;lon;timestamp;P1;durP1;ratioP1;P2;durP2;ratioP2
56255;SDS011;57229;51.432;-2.598;2024-02-16T00:00:41;25.65;;;13.15;;
56255;SDS011;57229;51.432;-2.598;2024-02-16T00:03:09;24.48;;;13.35;;
56255;SDS011;57229;51.432;-2.598;2024-02-16T00:05:35;25.75;;;13.52;;
56255;SDS011;57229;51.432;-2.598;2024-02-16T00:08:01;23.42;;;12.63;;
56255;SDS011;57229;51.432;-2.598;2024-02-16T00:10:28;25.80;;;13.45;;
56255;SDS011;57229;51.432;-2.598;2024-02-16T00:12:54;23.30;;;12.70;;
56255;SDS011;57229;51.432;-2.598;2024-02-16T00:15:19;24.23;;;12.40;;
56255;SDS011;57229;51.432;-2.598;2024-02-16T00:17:45;24.92;;;13.63;;
56255;SDS011;57229;51.432;-2.598;2024-02-16T00:20:11;25.60;;;12.65;;
56255;SDS011;57229;51.432;-2.598;2024-02-16T00:22:39;25.23;;;12.95;;
56255;SDS011;57229;51.432;-2.598;2024-02-16T00:25:05;22.05;;;12.90;;
56255;SDS011;57229;51.432;-2.598;2024-02-16T00:27:31;20.90;;;12.68;;
56255;SDS011;57229;51.432;-2.598;2024-02-16T00:29:57;24.42;;;13.60;;
56255;SDS011;57229;51.432;-2.598;2024-02-16T00:35:04;27.48;;;13.25;;
56255;SDS011;57229;51.432;-2.598;2024-02-16T00:37:30;25.25;;;14.43;;
56255;SDS011;57229;51.432;-2.598;2024-02-16T00:39:55;29.63;;;14.02;;
56255;SDS011;57229;51.432;-2.598;2024-02-16T00:42:21;24.80;;;12.77;;
56255;SDS011;57229;51.432;-2.598;2024-02-16T00:44:51;30.63;;;14.18;;
56255;SDS011;57229;51.432;-2.598;2024-02-16T00:47:20;29.17;;;14.20;;
56255;SDS011;57229;51.432;-2.598;2024-02-16T00:50:35;26.80;;;13.32;;
56255;SDS011;57229;51.432;-2.598;2024-02-16T00:53:40;23.25;;;12.40;;
56255;SDS011;57229;51.432;-2.598;2024-02-16T00:56:06;29.63;;;13.85;;
56255;SDS011;57229;51.432;-2.598;2024-02-16T00:58:32;29.95;;;13.75;;
56255;SDS011;57229;51.432;-2.598;2024-02-16T01:00:57;27.70;;;13.57;;
56255;SDS011;57229;51.432;-2.598;2024-02-16T01:03:23;28.88;;;13.90;;
56255;SDS011;57229;51.432;-2.598;2024-02-16T01:05:51;26.98;;;13.45;;
56255;SDS011;57229;51.432;-2.598;2024-02-16T01:08:17;28.98;;;13.93;;
56255;SDS011;57229;51.432;-2.598;2024-02-16T01:10:43;26.08;;;12.80;;
56255;SDS011;57229;51.432;-2.598;2024-02-16T01:13:08;27.27;;;14.45;;
56255;SDS011;57229;51.432;-2.598;2024-02-16T01:15:35;27.73;;;14.43;;
56255;SDS011;57229;51.432;-2.598;2024-02-16T01:18:02;28.80;;;15.10;;
56255;SDS011;57229;51.432;-2.598;2024-02-16T01:20:28;29.83;;;14.48;;
56255;SDS011;57229;51.432;-2.598;2024-02-16T01:23:17;26.58;;;12.55;;
56255;SDS011;57229;51.432;-2.598;2024-02-16T01:25:42;29.75;;;14.82;;
56255;SDS011;57229;51.432;-2.598;2024-02-16T01:31:14;38.90;;;15.40;;
56255;SDS011;57229;51.432;-2.598;2024-02-16T01:33:40;34.00;;;16.73;;
56255;SDS011;57229;51.432;-2.598;2024-02-16T01:36:05;33.72;;;16.45;;
56255;SDS011;57229;51.432;-2.598;2024-02-16T01:38:31;31.70;;;16.50;;
56255;SDS011;57229;51.432;-2.598;2024-02-16T01:40:57;31.63;;;15.63;;
56255;SDS011;57229;51.432;-2.598;2024-02-16T01:43:22;31.00;;;14.10;;
56255;SDS011;57229;51.432;-2.598;2024-02-16T01:45:48;29.45;;;13.43;;
56255;SDS011;57229;51.432;-2.598;2024-02-16T01:48:14;23.55;;;12.57;;
56255;SDS011;57229;51.432;-2.598;2024-02-16T01:50:43;24.80;;;13.07;;
56255;SDS011;57229;51.432;-2.598;2024-02-16T01:53:09;27.63;;;13.85;;
56255;SDS011;57229;51.432;-2.598;2024-02-16T01:55:36;29.30;;;13.50;;
56255;SDS011;57229;51.432;-2.598;2024-02-16T01:58:03;26.27;;;12.32;;
56255;SDS011;57229;51.432;-2.598;2024-02-16T02:00:29;28.02;;;13.80;;
56255;SDS011;57229;51.432;-2.598;2024-02-16T02:02:55;20.98;;;10.05;;
56255;SDS011;57229;51.432;-2.598;2024-02-16T02:05:22;16.73;;;8.98;;
56255;SDS011;57229;51.432;-2.598;2024-02-16T02:07:48;14.60;;;8.02;;
56255;SDS011;57229;51.432;-2.598;2024-02-16T02:10:14;19.63;;;7.72;;
56255;SDS011;57229;51.432;-2.598;2024-02-16T02:12:39;12.32;;;7.18;;
56255;SDS011;57229;51.432;-2.598;2024-02-16T02:15:07;18.67;;;7.90;;
56255;SDS011;57229;51.432;-2.598;2024-02-16T02:17:33;18.98;;;8.93;;
56255;SDS011;57229;51.432;-2.598;2024-02-16T02:19:59;15.02;;;8.20;;
56255;SDS011;57229;51.432;-2.598;2024-02-16T02:22:25;17.67;;;8.27;;
56255;SDS011;57229;51.432;-2.598;2024-02-16T02:24:52;18.02;;;8.77;;
56255;SDS011;57229;51.432;-2.598;2024-02-16T02:27:20;16.15;;;8.40;;
56255;SDS011;57229;51.432;-2.598;2024-02-16T02:29:46;17.75;;;8.40;;
56255;SDS011;57229;51.432;-2.598;2024-02-16T02:32:12;18.00;;;7.78;;
56255;SDS011;57229;51.432;-2.598;2024-02-16T02:34:38;18.45;;;7.95;;
56255;SDS011;57229;51.432;-2.598;2024-02-16T02:37:04;22.02;;;8.23;;
56255;SDS011;57229;51.432;-2.598;2024-02-16T02:39:30;19.38;;;8.02;;
56255;SDS011;57229;51.432;-2.598;2024-02-16T02:41:57;19.55;;;7.57;;
56255;SDS011;57229;51.432;-2.598;2024-02-16T02:44:23;19.05;;;7.43;;
56255;SDS011;57229;51.432;-2.598;2024-02-16T02:46:49;18.05;;;7.10;;
56255;SDS011;57229;51.432;-2.598;2024-02-16T02:49:15;12.48;;;6.65;;
56255;SDS011;57229;51.432;-2.598;2024-02-16T02:51:46;11.55;;;6.43;;
56255;SDS011;57229;51.432;-2.598;2024-02-16T02:54:18;19.48;;;8.02;;
56255;SDS011;57229;51.432;-2.598;2024-02-16T02:56:44;22.20;;;8.48;;
56255;SDS011;57229;51.432;-2.598;2024-02-16T02:59:09;20.02;;;8.73;;
56255;SDS011;57229;51.432;-2.598;2024-02-16T03:01:43;28.02;;;10.02;;
56255;SDS011;57229;51.432;-2.598;2024-02-16T03:04:10;22.57;;;9.63;;
56255;SDS011;57229;51.432;-2.598;2024-02-16T03:06:36;20.88;;;10.30;;
56255;SDS011;57229;51.432;-2.598;2024-02-16T03:09:01;35.45;;;11.25;;
56255;SDS011;57229;51.432;-2.598;2024-02-16T03:11:27;27.42;;;11.00;;
56255;SDS011;57229;51.432;-2.598;2024-02-16T03:13:52;18.95;;;10.10;;
56255;SDS011;57229;51.432;-2.598;2024-02-16T03:16:18;29.48;;;10.88;;
56255;SDS011;57229;51.432;-2.598;2024-02-16T03:18:44;29.55;;;11.05;;
56255;SDS011;57229;51.432;-2.598;2024-02-16T03:21:12;35.88;;;12.25;;
56255;SDS011;57229;51.432;-2.598;2024-02-16T03:23:41;24.15;;;10.02;;
56255;SDS011;57229;51.432;-2.598;2024-02-16T03:26:17;35.05;;;11.43;;
56255;SDS011;57229;51.432;-2.598;2024-02-16T03:28:45;29.83;;;9.10;;
56255;SDS011;57229;51.432;-2.598;2024-02-16T03:31:21;34.45;;;11.02;;
56255;SDS011;57229;51.432;-2.598;2024-02-16T03:33:48;31.00;;;9.60;;
56255;SDS011;57229;51.432;-2.598;2024-02-16T03:36:15;35.28;;;9.55;;
56255;SDS011;57229;51.432;-2.598;2024-02-16T03:38:45;30.23;;;9.27;;
56255;SDS011;57229;51.432;-2.598;2024-02-16T03:41:15;35.72;;;9.32;;
56255;SDS011;57229;51.432;-2.598;2024-02-16T03:43:44;26.52;;;8.30;;
56255;SDS011;57229;51.432;-2.598;2024-02-16T03:46:10;29.50;;;7.70;;
56255;SDS011;57229;51.432;-2.598;2024-02-16T03:48:36;28.17;;;8.13;;
56255;SDS011;57229;51.432;-2.598;2024-02-16T03:51:02;34.33;;;9.00;;
56255;SDS011;57229;51.432;-2.598;2024-02-16T03:53:31;34.30;;;8.02;;
56255;SDS011;57229;51.432;-2.598;2024-02-16T03:56:04;27.60;;;8.02;;
56255;SDS011;57229;51.432;-2.598;2024-02-16T03:58:30;29.00;;;7.47;;
56255;SDS011;57229;51.432;-2.598;2024-02-16T04:00:56;32.00;;;8.52;;
56255;SDS011;57229;51.432;-2.598;2024-02-16T04:03:23;19.15;;;7.82;;
56255;SDS011;57229;51.432;-2.598;2024-02-16T04:05:48;29.23;;;9.85;;
56255;SDS011;57229;51.432;-2.598;2024-02-16T04:08:14;26.25;;;9.18;;
56255;SDS011;57229;51.432;-2.598;2024-02-16T04:10:40;25.42;;;8.10;;
56255;SDS011;57229;51.432;-2.598;2024-02-16T04:13:05;28.83;;;8.43;;
56255;SDS011;57229;51.432;-2.598;2024-02-16T04:15:31;36.72;;;10.23;;
56255;SDS011;57229;51.432;-2.598;2024-02-16T04:17:57;29.65;;;9.07;;
56255;SDS011;57229;51.432;-2.598;2024-02-16T04:20:22;34.30;;;8.35;;
56255;SDS011;57229;51.432;-2.598;2024-02-16T04:22:48;29.80;;;9.50;;
56255;SDS011;57229;51.432;-2.598;2024-02-16T04:25:13;26.40;;;8.70;;
56255;SDS011;57229;51.432;-2.598;2024-02-16T04:27:39;36.15;;;9.65;;
56255;SDS011;57229;51.432;-2.598;2024-02-16T04:30:05;29.80;;;10.95;;
56255;SDS011;57229;51.432;-2.598;2024-02-16T04:32:31;26.75;;;9.23;;
56255;SDS011;57229;51.432;-2.598;2024-02-16T04:34:57;27.38;;;8.70;;
56255;SDS011;57229;51.432;-2.598;2024-02-16T04:37:24;20.80;;;7.70;;
56255;SDS011;57229;51.432;-2.598;2024-02-16T04:39:50;27.70;;;6.80;;
56255;SDS011;57229;51.432;-2.598;2024-02-16T04:42:16;18.25;;;6.28;;
56255;SDS011;57229;51.432;-2.598;2024-02-16T04:44:42;22.23;;;7.35;;
56255;SDS011;57229;51.432;-2.598;2024-02-16T04:47:08;25.38;;;7.35;;
56255;SDS011;57229;51.432;-2.598;2024-02-16T04:49:37;37.83;;;6.95;;
56255;SDS011;57229;51.432;-2.598;2024-02-16T04:52:03;25.00;;;6.68;;
56255;SDS011;57229;51.432;-2.598;2024-02-16T04:54:29;24.70;;;6.28;;
56255;SDS011;57229;51.432;-2.598;2024-02-16T04:56:54;28.75;;;6.30;;
56255;SDS011;57229;51.432;-2.598;2024-02-16T04:59:20;33.97;;;6.95;;
56255;SDS011;57229;51.432;-2.598;2024-02-16T05:01:46;29.80;;;6.65;;
56255;SDS011;57229;51.432;-2.598;2024-02-16T05:04:12;23.45;;;6.85;;
56255;SDS011;57229;51.432;-2.598;2024-02-16T05:06:41;26.88;;;6.93;;
56255;SDS011;57229;51.432;-2.598;2024-02-16T05:09:07;32.60;;;6.85;;
56255;SDS011;57229;51.432;-2.598;2024-02-16T05:11:33;17.70;;;6.07;;
56255;SDS011;57229;51.432;-2.598;2024-02-16T05:13:58;27.50;;;6.90;;
56255;SDS011;57229;51.432;-2.598;2024-02-16T05:16:25;21.45;;;6.57;;
56255;SDS011;57229;51.432;-2.598;2024-02-16T05:18:51;22.95;;;6.70;;
56255;SDS011;57229;51.432;-2.598;2024-02-16T05:21:17;20.77;;;6.38;;
56255;SDS011;57229;51.432;-2.598;2024-02-16T05:23:43;27.13;;;8.00;;
56255;SDS011;57229;51.432;-2.598;2024-02-16T05:26:09;26.17;;;7.65;;
56255;SDS011;57229;51.432;-2.598;2024-02-16T05:28:38;19.38;;;7.00;;
56255;SDS011;57229;51.432;-2.598;2024-02-16T05:31:12;36.13;;;6.63;;
56255;SDS011;57229;51.432;-2.598;2024-02-16T05:33:40;26.52;;;7.22;;
56255;SDS011;57229;51.432;-2.598;2024-02-16T05:36:06;26.63;;;6.90;;
56255;SDS011;57229;51.432;-2.598;2024-02-16T05:38:32;23.23;;;6.30;;
56255;SDS011;57229;51.432;-2.598;2024-02-16T05:41:00;26.27;;;6.68;;
56255;SDS011;57229;51.432;-2.598;2024-02-16T05:43:26;19.15;;;6.07;;
56255;SDS011;57229;51.432;-2.598;2024-02-16T05:45:51;19.88;;;6.25;;
56255;SDS011;57229;51.432;-2.598;2024-02-16T05:48:17;20.65;;;6.10;;
56255;SDS011;57229;51.432;-2.598;2024-02-16T05:50:44;25.80;;;7.18;;
56255;SDS011;57229;51.432;-2.598;2024-02-16T05:53:10;24.27;;;7.03;;
56255;SDS011;57229;51.432;-2.598;2024-02-16T05:55:36;38.08;;;8.57;;
56255;SDS011;57229;51.432;-2.598;2024-02-16T05:58:02;28.17;;;7.53;;
56255;SDS011;57229;51.432;-2.598;2024-02-16T06:00:30;23.45;;;7.00;;
56255;SDS011;57229;51.432;-2.598;2024-02-16T06:02:59;29.75;;;7.95;;
56255;SDS011;57229;51.432;-2.598;2024-02-16T06:05:25;27.45;;;7.10;;
56255;SDS011;57229;51.432;-2.598;2024-02-16T06:07:51;28.77;;;8.13;;
56255;SDS011;57229;51.432;-2.598;2024-02-16T06:10:16;26.88;;;6.78;;
56255;SDS011;57229;51.432;-2.598;2024-02-16T06:12:43;22.35;;;7.45;;
56255;SDS011;57229;51.432;-2.598;2024-02-16T06:15:08;27.38;;;7.47;;
56255;SDS011;57229;51.432;-2.598;2024-02-16T06:17:34;27.65;;;8.77;;
56255;SDS011;57229;51.432;-2.598;2024-02-16T06:20:01;30.75;;;7.78;;
56255;SDS011;57229;51.432;-2.598;2024-02-16T06:22:29;23.17;;;7.68;;
56255;SDS011;57229;51.432;-2.598;2024-02-16T06:24:56;25.73;;;7.97;;
56255;SDS011;57229;51.432;-2.598;2024-02-16T06:27:22;14.07;;;6.82;;
56255;SDS011;57229;51.432;-2.598;2024-02-16T06:29:49;20.02;;;6.40;;
56255;SDS011;57229;51.432;-2.598;2024-02-16T06:32:14;24.77;;;6.93;;
56255;SDS011;57229;51.432;-2.598;2024-02-16T06:34:42;21.88;;;7.55;;
56255;SDS011;57229;51.432;-2.598;2024-02-16T06:37:07;17.70;;;5.65;;
56255;SDS011;57229;51.432;-2.598;2024-02-16T06:39:33;25.42;;;6.88;;
56255;SDS011;57229;51.432;-2.598;2024-02-16T06:41:59;26.13;;;7.65;;
56255;SDS011;57229;51.432;-2.598;2024-02-16T06:44:25;23.80;;;6.78;;
56255;SDS011;57229;51.432;-2.598;2024-02-16T06:46:51;25.75;;;6.75;;
56255;SDS011;57229;51.432;-2.598;2024-02-16T06:49:16;24.48;;;7.10;;
56255;SDS011;57229;51.432;-2.598;2024-02-16T06:51:42;25.48;;;6.97;;
56255;SDS011;57229;51.432;-2.598;2024-02-16T06:54:09;28.10;;;6.78;;
56255;SDS011;57229;51.432;-2.598;2024-02-16T06:56:35;21.85;;;6.55;;
56255;SDS011;57229;51.432;-2.598;2024-02-16T06:59:01;27.38;;;7.07;;
56255;SDS011;57229;51.432;-2.598;2024-02-16T07:01:27;28.20;;;7.22;;
56255;SDS011;57229;51.432;-2.598;2024-02-16T07:03:52;19.58;;;6.70;;
56255;SDS011;57229;51.432;-2.598;2024-02-16T07:06:18;25.73;;;7.00;;
56255;SDS011;57229;51.432;-2.598;2024-02-16T07:08:44;23.27;;;6.82;;
56255;SDS011;57229;51.432;-2.598;2024-02-16T07:11:10;30.65;;;7.88;;
56255;SDS011;57229;51.432;-2.598;2024-02-16T07:13:39;24.75;;;6.40;;
56255;SDS011;57229;51.432;-2.598;2024-02-16T07:16:07;28.13;;;6.63;;
56255;SDS011;57229;51.432;-2.598;2024-02-16T07:18:33;21.75;;;5.72;;
56255;SDS011;57229;51.432;-2.598;2024-02-16T07:21:00;31.85;;;5.53;;
56255;SDS011;57229;51.432;-2.598;2024-02-16T07:23:26;24.13;;;5.55;;
56255;SDS011;57229;51.432;-2.598;2024-02-16T07:25:52;17.00;;;5.50;;
56255;SDS011;57229;51.432;-2.598;2024-02-16T07:28:21;28.05;;;5.45;;
56255;SDS011;57229;51.432;-2.598;2024-02-16T07:30:47;16.98;;;4.97;;
56255;SDS011;57229;51.432;-2.598;2024-02-16T07:33:14;18.80;;;5.18;;
56255;SDS011;57229;51.432;-2.598;2024-02-16T07:35:40;19.25;;;4.97;;
56255;SDS011;57229;51.432;-2.598;2024-02-16T07:38:06;28.65;;;5.65;;
56255;SDS011;57229;51.432;-2.598;2024-02-16T07:40:32;21.35;;;5.15;;
56255;SDS011;57229;51.432;-2.598;2024-02-16T07:42:58;33.58;;;5.30;;
56255;SDS011;57229;51.432;-2.598;2024-02-16T07:45:24;23.25;;;5.10;;
56255;SDS011;57229;51.432;-2.598;2024-02-16T07:47:50;17.63;;;4.50;;
56255;SDS011;57229;51.432;-2.598;2024-02-16T07:50:21;21.15;;;4.80;;
56255;SDS011;57229;51.432;-2.598;2024-02-16T07:52:48;19.33;;;5.07;;
56255;SDS011;57229;51.432;-2.598;2024-02-16T07:55:14;19.40;;;4.85;;
56255;SDS011;57229;51.432;-2.598;2024-02-16T07:57:42;18.90;;;4.68;;
56255;SDS011;57229;51.432;-2.598;2024-02-16T08:00:08;23.67;;;4.18;;
56255;SDS011;57229;51.432;-2.598;2024-02-16T08:02:35;10.02;;;4.10;;
56255;SDS011;57229;51.432;-2.598;2024-02-16T08:05:01;17.35;;;5.18;;
56255;SDS011;57229;51.432;-2.598;2024-02-16T08:07:27;16.48;;;4.55;;
56255;SDS011;57229;51.432;-2.598;2024-02-16T08:09:53;17.05;;;4.65;;
56255;SDS011;57229;51.432;-2.598;2024-02-16T08:12:18;20.90;;;5.10;;
56255;SDS011;57229;51.432;-2.598;2024-02-16T08:14:44;19.60;;;4.95;;
56255;SDS011;57229;51.432;-2.598;2024-02-16T08:17:12;9.65;;;4.43;;
56255;SDS011;57229;51.432;-2.598;2024-02-16T08:19:38;15.63;;;5.10;;
56255;SDS011;57229;51.432;-2.598;2024-02-16T08:22:05;14.02;;;4.78;;
56255;SDS011;57229;51.432;-2.598;2024-02-16T08:24:32;21.92;;;5.22;;
56255;SDS011;57229;51.432;-2.598;2024-02-16T08:26:58;19.75;;;5.32;;
56255;SDS011;57229;51.432;-2.598;2024-02-16T08:29:24;19.02;;;5.00;;
56255;SDS011;57229;51.432;-2.598;2024-02-16T08:31:50;18.50;;;4.80;;
56255;SDS011;57229;51.432;-2.598;2024-02-16T08:34:16;16.05;;;5.35;;
56255;SDS011;57229;51.432;-2.598;2024-02-16T08:36:49;20.05;;;5.20;;
56255;SDS011;57229;51.432;-2.598;2024-02-16T08:39:15;19.55;;;5.53;;
56255;SDS011;57229;51.432;-2.598;2024-02-16T08:41:42;15.88;;;5.07;;
56255;SDS011;57229;51.432;-2.598;2024-02-16T08:44:13;16.02;;;5.43;;
56255;SDS011;57229;51.432;-2.598;2024-02-16T08:46:39;22.23;;;5.03;;
56255;SDS011;57229;51.432;-2.598;2024-02-16T08:49:05;19.88;;;4.68;;
56255;SDS011;57229;51.432;-2.598;2024-02-16T08:51:31;21.77;;;5.10;;
56255;SDS011;57229;51.432;-2.598;2024-02-16T08:53:58;26.58;;;5.55;;
56255;SDS011;57229;51.432;-2.598;2024-02-16T08:56:24;17.73;;;5.05;;
56255;SDS011;57229;51.432;-2.598;2024-02-16T08:58:49;26.88;;;5.63;;
56255;SDS011;57229;51.432;-2.598;2024-02-16T09:01:15;23.73;;;5.95;;
56255;SDS011;57229;51.432;-2.598;2024-02-16T09:03:42;25.00;;;5.63;;
56255;SDS011;57229;51.432;-2.598;2024-02-16T09:06:07;22.70;;;5.82;;
56255;SDS011;57229;51.432;-2.598;2024-02-16T09:08:33;17.70;;;5.10;;
56255;SDS011;57229;51.432;-2.598;2024-02-16T09:11:03;18.65;;;5.63;;
56255;SDS011;57229;51.432;-2.598;2024-02-16T09:13:33;12.50;;;5.65;;
56255;SDS011;57229;51.432;-2.598;2024-02-16T09:16:00;22.80;;;5.47;;
56255;SDS011;57229;51.432;-2.598;2024-02-16T09:18:26;12.77;;;4.97;;
56255;SDS011;57229;51.432;-2.598;2024-02-16T09:20:52;12.40;;;5.00;;
56255;SDS011;57229;51.432;-2.598;2024-02-16T09:23:18;8.30;;;4.80;;
56255;SDS011;57229;51.432;-2.598;2024-02-16T09:25:43;20.58;;;5.57;;
56255;SDS011;57229;51.432;-2.598;2024-02-16T09:28:11;15.93;;;5.75;;
56255;SDS011;57229;51.432;-2.598;2024-02-16T09:30:37;14.93;;;5.32;;
56255;SDS011;57229;51.432;-2.598;2024-02-16T09:33:03;20.13;;;6.05;;
56255;SDS011;57229;51.432;-2.598;2024-02-16T09:35:29;16.00;;;5.72;;
56255;SDS011;57229;51.432;-2.598;2024-02-16T09:37:55;14.88;;;5.10;;
56255;SDS011;57229;51.432;-2.598;2024-02-16T09:40:21;23.30;;;5.95;;
56255;SDS011;57229;51.432;-2.598;2024-02-16T09:42:50;12.70;;;6.15;;
56255;SDS011;57229;51.432;-2.598;2024-02-16T09:45:16;15.13;;;5.60;;
56255;SDS011;57229;51.432;-2.598;2024-02-16T09:47:45;13.98;;;5.38;;
56255;SDS011;57229;51.432;-2.598;2024-02-16T09:50:12;12.73;;;6.40;;
56255;SDS011;57229;51.432;-2.598;2024-02-16T09:52:38;14.52;;;5.80;;
56255;SDS011;57229;51.432;-2.598;2024-02-16T09:55:05;12.57;;;6.53;;
56255;SDS011;57229;51.432;-2.598;2024-02-16T09:57:35;15.23;;;5.72;;
56255;SDS011;57229;51.432;-2.598;2024-02-16T10:00:01;14.75;;;5.50;;
56255;SDS011;57229;51.432;-2.598;2024-02-16T10:02:38;11.48;;;5.22;;
56255;SDS011;57229;51.432;-2.598;2024-02-16T10:05:14;9.93;;;5.30;;
56255;SDS011;57229;51.432;-2.598;2024-02-16T10:07:40;14.80;;;5.30;;
56255;SDS011;57229;51.432;-2.598;2024-02-16T10:10:06;12.57;;;5.90;;
56255;SDS011;57229;51.432;-2.598;2024-02-16T10:12:44;12.00;;;5.72;;
56255;SDS011;57229;51.432;-2.598;2024-02-16T10:15:10;8.75;;;5.55;;
56255;SDS011;57229;51.432;-2.598;2024-02-16T10:17:36;12.40;;;5.95;;
56255;SDS011;57229;51.432;-2.598;2024-02-16T10:20:02;7.63;;;5.32;;
56255;SDS011;57229;51.432;-2.598;2024-02-16T10:22:31;14.00;;;6.03;;
56255;SDS011;57229;51.432;-2.598;2024-02-16T10:25:06;9.13;;;5.28;;
56255;SDS011;57229;51.432;-2.598;2024-02-16T10:27:36;9.93;;;4.93;;
56255;SDS011;57229;51.432;-2.598;2024-02-16T10:30:02;11.90;;;5.15;;
56255;SDS011;57229;51.432;-2.598;2024-02-16T10:32:36;9.25;;;5.32;;
56255;SDS011;57229;51.432;-2.598;2024-02-16T10:35:03;10.77;;;5.13;;
56255;SDS011;57229;51.432;-2.598;2024-02-16T10:37:31;8.85;;;4.72;;
56255;SDS011;57229;51.432;-2.598;2024-02-16T10:39:57;10.02;;;5.28;;
56255;SDS011;57229;51.432;-2.598;2024-02-16T10:42:25;9.00;;;5.10;;
56255;SDS011;57229;51.432;-2.598;2024-02-16T10:44:55;9.43;;;4.57;;
56255;SDS011;57229;51.432;-2.598;2024-02-16T10:47:21;11.88;;;5.10;;
56255;SDS011;57229;51.432;-2.598;2024-02-16T10:49:46;10.15;;;5.00;;
56255;SDS011;57229;51.432;-2.598;2024-02-16T10:52:12;10.98;;;5.00;;
56255;SDS011;57229;51.432;-2.598;2024-02-16T10:54:40;11.55;;;5.07;;
56255;SDS011;57229;51.432;-2.598;2024-02-16T10:57:07;10.13;;;5.10;;
56255;SDS011;57229;51.432;-2.598;2024-02-16T10:59:40;8.45;;;4.78;;
56255;SDS011;57229;51.432;-2.598;2024-02-16T11:02:10;12.00;;;5.25;;
56255;SDS011;57229;51.432;-2.598;2024-02-16T11:04:37;10.80;;;4.63;;
56255;SDS011;57229;51.432;-2.598;2024-02-16T11:07:10;9.88;;;5.57;;
56255;SDS011;57229;51.432;-2.598;2024-02-16T11:09:38;17.15;;;5.80;;
56255;SDS011;57229;51.432;-2.598;2024-02-16T11:12:05;13.80;;;5.20;;
56255;SDS011;57229;51.432;-2.598;2024-02-16T11:14:42;9.35;;;5.40;;
56255;SDS011;57229;51.432;-2.598;2024-02-16T11:17:20;17.83;;;5.93;;
56255;SDS011;57229;51.432;-2.598;2024-02-16T11:19:47;18.30;;;5.85;;
56255;SDS011;57229;51.432;-2.598;2024-02-16T11:22:20;11.82;;;5.40;;
56255;SDS011;57229;51.432;-2.598;2024-02-16T11:24:49;11.18;;;5.05;;
56255;SDS011;57229;51.432;-2.598;2024-02-16T11:27:17;13.75;;;5.15;;
56255;SDS011;57229;51.432;-2.598;2024-02-16T11:29:47;7.28;;;4.63;;
56255;SDS011;57229;51.432;-2.598;2024-02-16T11:32:13;13.05;;;5.15;;
56255;SDS011;57229;51.432;-2.598;2024-02-16T11:34:39;10.52;;;4.90;;
56255;SDS011;57229;51.432;-2.598;2024-02-16T11:37:05;10.00;;;4.80;;
56255;SDS011;57229;51.432;-2.598;2024-02-16T11:39:31;8.48;;;4.85;;
56255;SDS011;57229;51.432;-2.598;2024-02-16T11:44:33;7.00;;;4.85;;
56255;SDS011;57229;51.432;-2.598;2024-02-16T11:47:00;12.13;;;5.13;;
56255;SDS011;57229;51.432;-2.598;2024-02-16T11:49:28;10.63;;;5.03;;
56255;SDS011;57229;51.432;-2.598;2024-02-16T11:51:55;12.75;;;5.40;;
56255;SDS011;57229;51.432;-2.598;2024-02-16T11:54:21;11.93;;;4.90;;
56255;SDS011;57229;51.432;-2.598;2024-02-16T11:56:48;7.60;;;5.03;;
56255;SDS011;57229;51.432;-2.598;2024-02-16T11:59:17;13.75;;;5.07;;
56255;SDS011;57229;51.432;-2.598;2024-02-16T12:01:54;9.77;;;5.38;;
56255;SDS011;57229;51.432;-2.598;2024-02-16T12:06:59;8.05;;;4.85;;
56255;SDS011;57229;51.432;-2.598;2024-02-16T12:09:25;12.00;;;5.43;;
56255;SDS011;57229;51.432;-2.598;2024-02-16T12:11:52;15.60;;;5.57;;
56255;SDS011;57229;51.432;-2.598;2024-02-16T12:14:20;14.63;;;5.88;;
56255;SDS011;57229;51.432;-2.598;2024-02-16T12:16:49;8.40;;;5.30;;
56255;SDS011;57229;51.432;-2.598;2024-02-16T12:19:16;18.00;;;5.70;;
56255;SDS011;57229;51.432;-2.598;2024-02-16T12:21:48;10.95;;;5.93;;
56255;SDS011;57229;51.432;-2.598;2024-02-16T12:24:17;11.13;;;6.13;;
56255;SDS011;57229;51.432;-2.598;2024-02-16T12:26:43;15.88;;;5.80;;
56255;SDS011;57229;51.432;-2.598;2024-02-16T12:29:09;18.05;;;5.40;;
56255;SDS011;57229;51.432;-2.598;2024-02-16T12:31:37;12.02;;;4.95;;
56255;SDS011;57229;51.432;-2.598;2024-02-16T12:34:08;9.48;;;5.22;;
56255;SDS011;57229;51.432;-2.598;2024-02-16T12:36:34;8.55;;;5.03;;
56255;SDS011;57229;51.432;-2.598;2024-02-16T12:39:00;14.98;;;6.53;;
56255;SDS011;57229;51.432;-2.598;2024-02-16T12:41:27;10.30;;;5.30;;
56255;SDS011;57229;51.432;-2.598;2024-02-16T12:43:54;9.90;;;5.10;;
56255;SDS011;57229;51.432;-2.598;2024-02-16T12:46:19;13.23;;;5.32;;
56255;SDS011;57229;51.432;-2.598;2024-02-16T12:48:45;6.35;;;4.70;;
56255;SDS011;57229;51.432;-2.598;2024-02-16T12:51:11;10.05;;;5.25;;
56255;SDS011;57229;51.432;-2.598;2024-02-16T12:53:36;9.13;;;4.88;;
56255;SDS011;57229;51.432;-2.598;2024-02-16T12:56:08;13.27;;;5.43;;
56255;SDS011;57229;51.432;-2.598;2024-02-16T12:58:37;14.55;;;5.47;;
56255;SDS011;57229;51.432;-2.598;2024-02-16T13:01:04;12.52;;;5.68;;
56255;SDS011;57229;51.432;-2.598;2024-02-16T13:03:34;13.13;;;5.43;;
56255;SDS011;57229;51.432;-2.598;2024-02-16T13:06:00;10.73;;;5.22;;
56255;SDS011;57229;51.432;-2.598;2024-02-16T13:08:26;12.63;;;5.03;;
56255;SDS011;57229;51.432;-2.598;2024-02-16T13:10:52;9.23;;;5.20;;
56255;SDS011;57229;51.432;-2.598;2024-02-16T13:13:18;13.00;;;5.25;;
56255;SDS011;57229;51.432;-2.598;2024-02-16T13:15:45;9.02;;;4.82;;
56255;SDS011;57229;51.432;-2.598;2024-02-16T13:18:12;11.25;;;5.00;;
56255;SDS011;57229;51.432;-2.598;2024-02-16T13:20:38;13.73;;;4.88;;
56255;SDS011;57229;51.432;-2.598;2024-02-16T13:23:04;14.40;;;5.50;;
56255;SDS011;57229;51.432;-2.598;2024-02-16T13:25:29;15.90;;;5.32;;
56255;SDS011;57229;51.432;-2.598;2024-02-16T13:28:04;16.10;;;5.15;;
56255;SDS011;57229;51.432;-2.598;2024-02-16T13:30:33;11.73;;;5.10;;
56255;SDS011;57229;51.432;-2.598;2024-02-16T13:32:59;15.98;;;5.53;;
56255;SDS011;57229;51.432;-2.598;2024-02-16T13:35:24;6.95;;;5.03;;
56255;SDS011;57229;51.432;-2.598;2024-02-16T13:37:53;13.82;;;4.72;;
56255;SDS011;57229;51.432;-2.598;2024-02-16T13:40:19;21.52;;;4.90;;
56255;SDS011;57229;51.432;-2.598;2024-02-16T13:42:46;12.73;;;4.70;;
56255;SDS011;57229;51.432;-2.598;2024-02-16T13:45:12;12.90;;;5.30;;
56255;SDS011;57229;51.432;-2.598;2024-02-16T13:47:38;12.80;;;5.60;;
56255;SDS011;57229;51.432;-2.598;2024-02-16T13:50:07;16.98;;;5.35;;
56255;SDS011;57229;51.432;-2.598;2024-02-16T13:52:33;10.70;;;4.90;;
56255;SDS011;57229;51.432;-2.598;2024-02-16T13:55:00;15.88;;;5.20;;
56255;SDS011;57229;51.432;-2.598;2024-02-16T13:57:26;16.08;;;5.10;;
56255;SDS011;57229;51.432;-2.598;2024-02-16T13:59:51;21.60;;;6.13;;
56255;SDS011;57229;51.432;-2.598;2024-02-16T14:02:17;14.43;;;5.13;;
56255;SDS011;57229;51.432;-2.598;2024-02-16T14:04:43;17.40;;;5.53;;
56255;SDS011;57229;51.432;-2.598;2024-02-16T14:07:09;11.63;;;4.95;;
56255;SDS011;57229;51.432;-2.598;2024-02-16T14:09:35;8.43;;;4.70;;
56255;SDS011;57229;51.432;-2.598;2024-02-16T14:12:00;14.90;;;5.43;;
56255;SDS011;57229;51.432;-2.598;2024-02-16T14:14:26;16.90;;;5.57;;
56255;SDS011;57229;51.432;-2.598;2024-02-16T14:16:52;19.25;;;6.25;;
56255;SDS011;57229;51.432;-2.598;2024-02-16T14:19:17;17.50;;;5.57;;
56255;SDS011;57229;51.432;-2.598;2024-02-16T14:21:43;9.23;;;5.97;;
56255;SDS011;57229;51.432;-2.598;2024-02-16T14:24:09;14.43;;;5.78;;
56255;SDS011;57229;51.432;-2.598;2024-02-16T14:26:37;20.85;;;5.93;;
56255;SDS011;57229;51.432;-2.598;2024-02-16T14:29:04;21.48;;;6.65;;
56255;SDS011;57229;51.432;-2.598;2024-02-16T14:31:30;14.88;;;5.97;;